Time;durP1;ratioP1;P1;durP2;ratioP2;P2;SDS_P1;SDS_P2;PMS_P1;PMS_P2;Temp;Humidity;BMP_temperature;BMP_pressure;BME280_temperature;BME280_humidity;BME280_pressure;Samples;Min_cycle;Max_cycle;Signal;HPM_P1;HPM_P2
2023/01/19 00:02:57;;;;;;;;;;;;;;;3.79;100.00;98780.41;5567163;32;34235;-70
2023/01/19 00:06:07;;;;;;;;;;;;;;;3.74;100.00;98785.34;5567153;32;33809;-70
2023/01/19 00:09:16;;;;;;;;;;;;;;;3.79;100.00;98781.25;5566404;32;34073;-71
2023/01/19 00:12:28;;;;;;;;;;;;;;;3.80;100.00;98777.62;5567045;32;34558;-70
2023/01/19 00:15:35;;;;;;;;;;;;;;;3.82;100.00;98782.72;5566076;32;34254;-69
2023/01/19 00:18:45;;;;;;;;;;;;;;;3.77;100.00;98775.34;5565616;32;34688;-70
2023/01/19 00:21:52;;;;;;;;;;;;;;;3.70;100.00;98774.34;5566085;32;34774;-70
2023/01/19 00:25:02;;;;;;;;;;;;;;;3.70;100.00;98784.03;5565827;32;33177;-70
2023/01/19 00:28:13;;;;;;;;;;;;;;;3.67;100.00;98785.19;5566037;32;33922;-70
2023/01/19 00:31:21;;;;;;;;;;;;;;;3.68;100.00;98778.94;5565897;32;34290;-71
2023/01/19 00:34:48;;;;;;;;;;;;;;;3.70;100.00;98779.59;5566554;32;34532;-69
2023/01/19 00:37:58;;;;;;;;;;;;;;;3.62;100.00;98776.16;5565688;32;32899;-69
2023/01/19 00:41:06;;;;;;;;;;;;;;;3.61;100.00;98782.37;5566492;32;34344;-69
2023/01/19 00:44:16;;;;;;;;;;;;;;;3.62;100.00;98784.03;5565398;32;33009;-69
2023/01/19 00:47:22;;;;;;;;;;;;;;;3.58;100.00;98778.28;5566444;32;34414;-69
2023/01/19 00:50:32;;;;;;;;;;;;;;;3.57;100.00;98788.94;5566063;32;35497;-70
2023/01/19 00:53:38;;;;;;;;;;;;;;;3.53;100.00;98780.59;5566147;32;34234;-69
2023/01/19 00:56:48;;;;;;;;;;;;;;;3.48;100.00;98780.25;5566208;32;34244;-68
2023/01/19 00:59:56;;;;;;;;;;;;;;;3.45;100.00;98776.13;5566089;32;34556;-69
2023/01/19 01:03:05;;;;;;;;;;;;;;;3.41;100.00;98769.56;5565208;32;33025;-69
2023/01/19 01:06:12;;;;;;;;;;;;;;;3.41;100.00;98760.88;5568984;32;34355;-68
2023/01/19 01:09:23;;;;;;;;;;;;;;;3.31;100.00;98766.28;5568952;32;35248;-68
2023/01/19 01:12:31;;;;;;;;;;;;;;;3.32;100.00;98764.47;5568895;32;33019;-69
2023/01/19 01:15:43;;;;;;;;;;;;;;;3.38;100.00;98767.28;5568796;32;34502;-68
2023/01/19 01:18:51;;;;;;;;;;;;;;;3.26;100.00;98763.31;5567632;32;33055;-68
2023/01/19 01:22:06;;;;;;;;;;;;;;;3.26;100.00;98759.88;5568800;32;35126;-68
2023/01/19 01:25:15;;;;;;;;;;;;;;;3.20;100.00;98757.88;5568752;32;34329;-68
2023/01/19 01:28:21;;;;;;;;;;;;;;;3.14;100.00;98763.78;5567527;32;35657;-68
2023/01/19 01:31:29;;;;;;;;;;;;;;;3.21;100.00;98767.41;5568837;32;34438;-68
2023/01/19 01:34:36;;;;;;;;;;;;;;;3.23;100.00;98768.06;5555042;32;32946;-68
2023/01/19 01:37:41;;;;;;;;;;;;;;;3.20;100.00;98771.00;5568900;32;34491;-68
2023/01/19 01:40:50;;;;;;;;;;;;;;;3.20;100.00;98755.25;5567871;32;34800;-68
2023/01/19 01:43:57;;;;;;;;;;;;;;;3.11;100.00;98758.84;5555217;32;34731;-68
2023/01/19 01:47:08;;;;;;;;;;;;;;;3.10;100.00;98752.78;5568964;32;34212;-69
2023/01/19 01:50:25;;;;;;;;;;;;;;;3.09;100.00;98760.84;5568621;32;34652;-69
2023/01/19 01:53:33;;;;;;;;;;;;;;;3.06;100.00;98772.44;5567724;32;35047;-69
2023/01/19 01:56:45;;;;;;;;;;;;;;;3.05;100.00;98768.16;5568542;32;34647;-68
2023/01/19 01:59:56;;;;;;;;;;;;;;;3.03;100.00;98762.28;5568708;32;34008;-68
2023/01/19 02:03:08;;;;;;;;;;;;;;;2.99;100.00;98771.44;5563066;32;34010;-69
2023/01/19 02:06:14;;;;;;;;;;;;;;;2.95;100.00;98781.41;5567713;32;34906;-69
2023/01/19 02:16:15;;;;;;;;;;;;;;;3.00;100.00;98815.00;5567078;32;33719;-69
2023/01/19 02:19:27;;;;;;;;;;;;;;;2.99;100.00;98790.59;5567558;32;34755;-69
2023/01/19 02:22:40;;;;;;;;;;;;;;;2.91;100.00;98759.13;5568276;32;34485;-69
2023/01/19 02:25:49;;;;;;;;;;;;;;;2.82;100.00;98740.91;5567122;32;34459;-69
2023/01/19 02:29:03;;;;;;;;;;;;;;;2.81;100.00;98744.53;5568263;32;34094;-69
2023/01/19 02:32:11;;;;;;;;;;;;;;;2.92;100.00;98767.81;5554916;32;33235;-69
2023/01/19 02:35:18;;;;;;;;;;;;;;;2.82;100.00;98798.53;5554670;32;34549;-70
2023/01/19 02:38:29;;;;;;;;;;;;;;;2.89;100.00;98810.84;5567469;32;34663;-69
2023/01/19 02:41:45;;;;;;;;;;;;;;;2.85;100.00;98795.63;5567366;32;33888;-71
2023/01/19 02:44:54;;;;;;;;;;;;;;;2.77;100.00;98777.22;5568209;32;34381;-70
2023/01/19 02:48:01;;;;;;;;;;;;;;;2.66;100.00;98769.69;5554817;32;34313;-70
2023/01/19 02:51:15;;;;;;;;;;;;;;;2.78;100.00;98764.00;5555080;32;34266;-69
2023/01/19 02:54:41;;;;;;;;;;;;;;;2.71;100.00;98751.69;5566617;32;34215;-70
2023/01/19 02:58:06;;;;;;;;;;;;;;;2.67;100.00;98743.31;5554775;32;34873;-69
2023/01/19 03:01:28;;;;;;;;;;;;;;;2.68;100.00;98754.62;5554468;32;34545;-70
2023/01/19 03:04:55;;;;;;;;;;;;;;;2.74;100.00;98772.31;5567122;32;34741;-71
2023/01/19 03:08:22;;;;;;;;;;;;;;;2.68;100.00;98772.94;5567131;32;34580;-69
2023/01/19 03:11:35;;;;;;;;;;;;;;;2.62;100.00;98784.84;5568098;32;34096;-71
2023/01/19 03:14:45;;;;;;;;;;;;;;;2.67;100.00;98779.97;5567831;32;34109;-71
2023/01/19 03:17:59;;;;;;;;;;;;;;;2.70;100.00;98771.81;5554588;32;34868;-69
2023/01/19 03:21:07;;;;;;;;;;;;;;;2.63;100.00;98789.94;5567990;32;34690;-70
2023/01/19 03:24:14;;;;;;;;;;;;;;;2.65;100.00;98804.69;5554242;32;33567;-70
2023/01/19 03:27:26;;;;;;;;;;;;;;;2.60;100.00;98818.25;5566021;32;34012;-70
2023/01/19 03:30:39;;;;;;;;;;;;;;;2.59;100.00;98814.81;5567643;32;35671;-70
2023/01/19 03:33:59;;;;;;;;;;;;;;;2.68;100.00;98791.28;5567625;32;34892;-69
2023/01/19 03:37:09;;;;;;;;;;;;;;;2.60;100.00;98763.28;5567542;32;35264;-70
2023/01/19 03:40:19;;;;;;;;;;;;;;;2.55;100.00;98762.91;5567583;32;34632;-70
2023/01/19 03:43:29;;;;;;;;;;;;;;;2.45;100.00;98742.09;5567494;32;34771;-70
2023/01/19 03:46:37;;;;;;;;;;;;;;;2.42;100.00;98724.06;5566478;32;34335;-70
2023/01/19 03:49:51;;;;;;;;;;;;;;;2.42;100.00;98723.28;5566108;32;34577;-70
2023/01/19 03:53:06;;;;;;;;;;;;;;;2.46;100.00;98735.87;5567470;32;34741;-70
2023/01/19 03:56:22;;;;;;;;;;;;;;;2.48;100.00;98740.94;5567276;32;34658;-69
2023/01/19 03:59:30;;;;;;;;;;;;;;;2.44;100.00;98755.31;5566285;32;33918;-70
2023/01/19 04:02:39;;;;;;;;;;;;;;;2.40;100.00;98754.81;5567068;32;34511;-70
2023/01/19 04:05:49;;;;;;;;;;;;;;;2.39;100.00;98781.13;5567227;32;34236;-71
2023/01/19 04:08:57;;;;;;;;;;;;;;;2.31;100.00;98786.34;5548601;32;32939;-70
2023/01/19 04:12:07;;;;;;;;;;;;;;;2.28;100.00;98782.22;5553080;32;34527;-70
2023/01/19 04:15:13;;;;;;;;;;;;;;;2.23;100.00;98766.16;5553523;32;35376;-70
2023/01/19 04:18:21;;;;;;;;;;;;;;;2.17;100.00;98780.69;5566826;32;34153;-70
2023/01/19 04:21:29;;;;;;;;;;;;;;;2.16;100.00;98781.66;5553786;32;34729;-70
2023/01/19 04:24:37;;;;;;;;;;;;;;;2.26;100.00;98784.19;5567067;32;34345;-70
2023/01/19 04:27:43;;;;;;;;;;;;;;;2.26;100.00;98786.78;5566756;32;34405;-70
2023/01/19 04:30:50;;;;;;;;;;;;;;;2.32;100.00;98775.72;5566620;32;34194;-69
2023/01/19 04:33:58;;;;;;;;;;;;;;;2.27;100.00;98782.37;5553295;32;35246;-69
2023/01/19 04:37:07;;;;;;;;;;;;;;;2.15;100.00;98774.78;5566397;32;33900;-70
2023/01/19 04:40:13;;;;;;;;;;;;;;;2.15;100.00;98771.34;5554286;32;34302;-70
2023/01/19 04:43:21;;;;;;;;;;;;;;;2.12;100.00;98772.50;5555916;32;34894;-70
2023/01/19 04:46:29;;;;;;;;;;;;;;;2.08;100.00;98768.50;5569063;32;34077;-70
2023/01/19 04:49:39;;;;;;;;;;;;;;;2.05;100.00;98753.13;5569286;32;35145;-72
2023/01/19 04:52:46;;;;;;;;;;;;;;;2.04;100.00;98743.66;5554793;32;34930;-70
2023/01/19 04:55:54;;;;;;;;;;;;;;;2.02;100.00;98744.78;5568643;32;35129;-69
2023/01/19 04:59:04;;;;;;;;;;;;;;;2.08;100.00;98749.41;5568908;32;34873;-70
2023/01/19 05:02:12;;;;;;;;;;;;;;;2.06;100.00;98764.41;5554555;32;34782;-70
2023/01/19 05:05:19;;;;;;;;;;;;;;;2.08;100.00;98781.59;5554633;32;33512;-69
2023/01/19 05:08:29;;;;;;;;;;;;;;;2.04;100.00;98789.91;5555200;32;33933;-70
2023/01/19 05:11:36;;;;;;;;;;;;;;;2.03;100.00;98804.75;5568725;32;34898;-71
2023/01/19 05:14:46;;;;;;;;;;;;;;;2.03;100.00;98810.00;5555665;32;34898;-70
2023/01/19 05:17:54;;;;;;;;;;;;;;;1.99;100.00;98792.16;5545124;32;35201;-71
2023/01/19 05:21:03;;;;;;;;;;;;;;;2.09;100.00;98796.31;5548416;32;35278;-71
2023/01/19 05:24:10;;;;;;;;;;;;;;;2.11;100.00;98809.25;5568435;32;34998;-71
2023/01/19 05:27:16;;;;;;;;;;;;;;;2.14;100.00;98824.63;5554793;32;34996;-72
2023/01/19 05:30:21;;;;;;;;;;;;;;;2.15;100.00;98828.91;5555026;32;34959;-72
2023/01/19 05:33:29;;;;;;;;;;;;;;;2.28;100.00;98831.94;5554350;32;33103;-71
2023/01/19 05:36:36;;;;;;;;;;;;;;;2.19;100.00;98831.06;5554952;32;35792;-71
2023/01/19 05:39:47;;;;;;;;;;;;;;;2.15;100.00;98821.88;5568499;32;35138;-71
2023/01/19 05:42:54;;;;;;;;;;;;;;;2.13;100.00;98834.28;5568463;32;34706;-71
2023/01/19 05:46:02;;;;;;;;;;;;;;;2.17;100.00;98830.41;5568300;32;34982;-71
2023/01/19 05:49:10;;;;;;;;;;;;;;;2.18;100.00;98824.19;5565537;32;34579;-71
2023/01/19 05:52:16;;;;;;;;;;;;;;;2.19;100.00;98812.75;5568175;32;34393;-72
2023/01/19 05:55:20;;;;;;;;;;;;;;;2.19;100.00;98798.84;5568121;32;34502;-71
2023/01/19 05:58:27;;;;;;;;;;;;;;;2.13;100.00;98810.72;5567229;32;34385;-72
2023/01/19 06:01:34;;;;;;;;;;;;;;;2.19;100.00;98807.50;5541116;32;33522;-73
2023/01/19 06:04:42;;;;;;;;;;;;;;;2.25;100.00;98782.53;5568109;32;34486;-72
2023/01/19 06:07:46;;;;;;;;;;;;;;;2.17;100.00;98774.66;5568276;32;35006;-73
2023/01/19 06:10:55;;;;;;;;;;;;;;;2.35;100.00;98790.28;5568098;32;34617;-72
2023/01/19 06:14:02;;;;;;;;;;;;;;;2.23;100.00;98781.84;5568151;32;35139;-72
2023/01/19 06:17:12;;;;;;;;;;;;;;;2.26;100.00;98781.56;5546944;32;34918;-73
2023/01/19 06:20:19;;;;;;;;;;;;;;;2.21;100.00;98769.91;5548444;32;34804;-72
2023/01/19 06:23:28;;;;;;;;;;;;;;;2.14;100.00;98783.59;5547306;32;34576;-73
2023/01/19 06:26:37;;;;;;;;;;;;;;;2.09;100.00;98787.66;5540725;32;34321;-75
2023/01/19 06:29:42;;;;;;;;;;;;;;;2.04;100.00;98780.25;5530028;32;34531;-74
2023/01/19 06:32:48;;;;;;;;;;;;;;;2.01;100.00;98753.59;5528986;32;35120;-73
2023/01/19 06:35:55;;;;;;;;;;;;;;;2.11;100.00;98765.59;5540707;32;33089;-73
2023/01/19 06:39:04;;;;;;;;;;;;;;;2.16;100.00;98771.19;5532100;32;34594;-72
2023/01/19 06:42:13;;;;;;;;;;;;;;;2.23;100.00;98787.09;5546407;32;35020;-73
2023/01/19 06:45:17;;;;;;;;;;;;;;;2.26;100.00;98802.50;5547828;32;34532;-72
2023/01/19 06:48:21;;;;;;;;;;;;;;;2.30;100.00;98816.09;5541662;32;34729;-72
2023/01/19 06:51:26;;;;;;;;;;;;;;;2.34;100.00;98818.25;5547157;32;34573;-73
2023/01/19 06:54:31;;;;;;;;;;;;;;;2.41;100.00;98814.03;5546819;32;34566;-72
2023/01/19 06:57:37;;;;;;;;;;;;;;;2.49;100.00;98816.69;5547572;32;34407;-72
2023/01/19 07:00:41;;;;;;;;;;;;;;;2.47;100.00;98794.28;5540110;32;34406;-73
2023/01/19 07:03:47;;;;;;;;;;;;;;;2.54;100.00;98816.25;5535886;32;35107;-73
2023/01/19 07:06:50;;;;;;;;;;;;;;;2.50;100.00;98804.44;5531008;32;35186;-72
2023/01/19 07:09:53;;;;;;;;;;;;;;;2.56;100.00;98806.44;5527063;32;34569;-72
2023/01/19 07:12:59;;;;;;;;;;;;;;;2.63;100.00;98789.94;5527889;32;34955;-72
2023/01/19 07:16:08;;;;;;;;;;;;;;;2.61;100.00;98791.88;5535196;32;35075;-72
2023/01/19 07:19:14;;;;;;;;;;;;;;;2.61;100.00;98793.72;5549701;31;34658;-72
2023/01/19 07:22:18;;;;;;;;;;;;;;;2.64;100.00;98785.53;5564529;32;35202;-73
2023/01/19 07:25:23;;;;;;;;;;;;;;;2.76;100.00;98804.41;5552665;32;34984;-73
2023/01/19 07:28:29;;;;;;;;;;;;;;;2.73;100.00;98823.03;5565471;32;34520;-73
2023/01/19 07:31:35;;;;;;;;;;;;;;;2.69;100.00;98819.94;5561858;31;34523;-72
2023/01/19 07:34:39;;;;;;;;;;;;;;;2.84;100.00;98831.47;5566226;31;34517;-72
2023/01/19 07:37:43;;;;;;;;;;;;;;;2.90;100.00;98832.63;5538244;32;33265;-72
2023/01/19 07:40:47;;;;;;;;;;;;;;;2.88;100.00;98818.88;5565332;32;35153;-72
2023/01/19 07:43:52;;;;;;;;;;;;;;;2.94;100.00;98818.25;5566490;32;33557;-72
2023/01/19 07:46:56;;;;;;;;;;;;;;;2.93;100.00;98822.66;5566858;32;34519;-71
2023/01/19 07:50:01;;;;;;;;;;;;;;;2.93;100.00;98829.69;5566970;31;35015;-72
2023/01/19 07:53:05;;;;;;;;;;;;;;;2.99;100.00;98819.41;5565043;32;35747;-72
2023/01/19 07:56:10;;;;;;;;;;;;;;;2.96;100.00;98838.03;5565775;32;34771;-72
2023/01/19 07:59:14;;;;;;;;;;;;;;;3.03;100.00;98833.00;5527469;32;34116;-73
2023/01/19 08:02:19;;;;;;;;;;;;;;;3.12;100.00;98844.34;5552420;32;33300;-73
2023/01/19 08:05:24;;;;;;;;;;;;;;;3.09;100.00;98832.38;5552227;32;34063;-72
2023/01/19 08:08:30;;;;;;;;;;;;;;;3.12;100.00;98853.03;5566543;32;35164;-73
2023/01/19 08:11:35;;;;;;;;;;;;;;;3.18;100.00;98836.69;5565628;32;34372;-73
2023/01/19 08:14:40;;;;;;;;;;;;;;;3.20;100.00;98841.75;5542050;32;34287;-72
2023/01/19 08:17:45;;;;;;;;;;;;;;;3.18;100.00;98828.00;5554960;32;34575;-73
2023/01/19 08:20:49;;;;;;;;;;;;;;;3.13;100.00;98830.25;5554923;32;35580;-73
2023/01/19 08:23:56;;;;;;;;;;;;;;;3.18;100.00;98818.34;5569156;32;34608;-74
2023/01/19 08:27:02;;;;;;;;;;;;;;;3.18;100.00;98815.72;5555472;32;34287;-72
2023/01/19 08:30:09;;;;;;;;;;;;;;;3.18;100.00;98822.75;5556603;32;34675;-72
2023/01/19 08:33:13;;;;;;;;;;;;;;;3.11;100.00;98819.13;5568831;32;35244;-72
2023/01/19 08:36:25;;;;;;;;;;;;;;;3.08;100.00;98819.44;5555349;32;34385;-74
2023/01/19 08:39:31;;;;;;;;;;;;;;;3.05;100.00;98824.00;5568860;32;34209;-73
2023/01/19 08:42:39;;;;;;;;;;;;;;;3.00;100.00;98834.13;5555701;32;34608;-74
2023/01/19 08:45:49;;;;;;;;;;;;;;;3.05;100.00;98839.72;5568753;32;35211;-74
2023/01/19 08:48:55;;;;;;;;;;;;;;;3.05;100.00;98831.88;5568565;32;35219;-73
2023/01/19 08:52:01;;;;;;;;;;;;;;;3.09;100.00;98834.19;5554710;32;34295;-73
2023/01/19 08:55:06;;;;;;;;;;;;;;;3.13;100.00;98846.81;5567575;32;34421;-74
2023/01/19 08:58:10;;;;;;;;;;;;;;;3.10;100.00;98848.94;5568336;32;34605;-73
2023/01/19 09:01:19;;;;;;;;;;;;;;;3.10;100.00;98847.09;5568552;32;34958;-74
2023/01/19 09:04:24;;;;;;;;;;;;;;;3.17;100.00;98835.03;5567642;32;34831;-75
2023/01/19 09:07:31;;;;;;;;;;;;;;;3.06;100.00;98836.13;5568058;32;34242;-75
2023/01/19 09:10:39;;;;;;;;;;;;;;;3.08;100.00;98832.53;5567775;32;34350;-75
2023/01/19 09:13:44;;;;;;;;;;;;;;;3.08;100.00;98830.75;5554805;32;34328;-75
2023/01/19 09:16:49;;;;;;;;;;;;;;;3.12;100.00;98831.25;5567475;32;35018;-74
2023/01/19 09:19:55;;;;;;;;;;;;;;;3.12;100.00;98828.63;5568505;32;34132;-74
2023/01/19 09:23:00;;;;;;;;;;;;;;;3.09;100.00;98835.00;5567756;32;35126;-76
2023/01/19 09:26:05;;;;;;;;;;;;;;;3.11;100.00;98851.38;5554233;32;33529;-75
2023/01/19 09:29:09;;;;;;;;;;;;;;;3.01;100.00;98840.19;5568360;32;34661;-74
2023/01/19 09:32:14;;;;;;;;;;;;;;;3.04;100.00;98834.66;5567531;32;35085;-74
2023/01/19 09:35:18;;;;;;;;;;;;;;;3.10;100.00;98826.16;5568578;32;35150;-74
2023/01/19 09:38:24;;;;;;;;;;;;;;;3.11;100.00;98830.41;5568373;32;34419;-73
2023/01/19 09:41:28;;;;;;;;;;;;;;;3.10;100.00;98836.63;5554875;32;33840;-72
2023/01/19 09:44:35;;;;;;;;;;;;;;;3.05;100.00;98836.28;5568241;32;35187;-74
2023/01/19 09:47:42;;;;;;;;;;;;;;;2.94;100.00;98832.16;5567112;32;33093;-73
2023/01/19 09:50:49;;;;;;;;;;;;;;;2.96;100.00;98826.75;5568131;31;35030;-73
2023/01/19 09:54:14;;;;;;;;;;;;;;;3.00;100.00;98820.25;5567426;32;35244;-73
2023/01/19 09:57:34;;;;;;;;;;;;;;;2.96;100.00;98829.38;5568245;32;35040;-74
2023/01/19 10:00:38;;;;;;;;;;;;;;;2.89;100.00;98838.84;5567441;32;33975;-74
2023/01/19 10:03:43;;;;;;;;;;;;;;;2.77;100.00;98833.06;5567426;32;34921;-73
2023/01/19 10:06:47;;;;;;;;;;;;;;;2.77;100.00;98834.84;5567349;32;34584;-73
2023/01/19 10:09:58;;;;;;;;;;;;;;;2.74;100.00;98838.59;5553677;32;33791;-72
2023/01/19 10:13:01;;;;;;;;;;;;;;;2.66;100.00;98837.75;5568339;32;34964;-73
2023/01/19 10:16:05;;;;;;;;;;;;;;;2.61;100.00;98846.06;5553538;32;35231;-72
2023/01/19 10:19:21;;;;;;;;;;;;;;;2.67;100.00;98853.28;5567045;32;34538;-73
2023/01/19 10:22:27;;;;;;;;;;;;;;;2.56;100.00;98846.53;5553715;32;33937;-73
2023/01/19 10:25:32;;;;;;;;;;;;;;;2.50;100.00;98860.22;5553823;32;33242;-73
2023/01/19 10:28:38;;;;;;;;;;;;;;;2.45;100.00;98859.88;5554632;32;34495;-73
2023/01/19 10:31:45;;;;;;;;;;;;;;;2.42;100.00;98857.53;5554604;32;33962;-73
2023/01/19 10:34:50;;;;;;;;;;;;;;;2.38;100.00;98850.16;5568045;32;34134;-72
2023/01/19 10:37:57;;;;;;;;;;;;;;;2.37;100.00;98862.41;5539786;32;33302;-70
2023/01/19 10:41:05;;;;;;;;;;;;;;;2.33;100.00;98863.69;5567898;32;34608;-72
2023/01/19 10:44:10;;;;;;;;;;;;;;;2.34;100.00;98859.28;5554882;32;34262;-72
2023/01/19 10:47:16;;;;;;;;;;;;;;;2.31;100.00;98864.84;5541085;32;34911;-71
2023/01/19 10:50:23;;;;;;;;;;;;;;;2.27;100.00;98872.19;5554074;32;34825;-70
2023/01/19 10:53:29;;;;;;;;;;;;;;;2.21;100.00;98870.16;5567889;32;34856;-71
2023/01/19 10:56:34;;;;;;;;;;;;;;;2.19;100.00;98874.72;5567877;32;35090;-70
2023/01/19 10:59:46;;;;;;;;;;;;;;;2.14;100.00;98872.53;5567635;32;34114;-70
2023/01/19 11:02:50;;;;;;;;;;;;;;;2.15;100.00;98875.97;5553679;32;33930;-69
2023/01/19 11:06:14;;;;;;;;;;;;;;;2.17;100.00;98880.09;5553996;32;34971;-69
2023/01/19 11:09:20;;;;;;;;;;;;;;;2.13;100.00;98876.12;5553677;32;33580;-69
2023/01/19 11:12:27;;;;;;;;;;;;;;;2.11;100.00;98885.94;5554450;32;34519;-70
2023/01/19 11:15:34;;;;;;;;;;;;;;;2.14;100.00;98879.56;5567819;32;35020;-70
2023/01/19 11:18:41;;;;;;;;;;;;;;;2.10;100.00;98873.81;5567164;32;34993;-70
2023/01/19 11:21:45;;;;;;;;;;;;;;;2.15;100.00;98874.19;5566680;32;34111;-68
2023/01/19 11:24:51;;;;;;;;;;;;;;;2.08;100.00;98882.81;5567674;32;35158;-69
2023/01/19 11:27:55;;;;;;;;;;;;;;;2.05;100.00;98880.47;5541314;32;34832;-68
2023/01/19 11:31:02;;;;;;;;;;;;;;;1.96;100.00;98871.75;5554246;32;34092;-70
2023/01/19 11:34:24;;;;;;;;;;;;;;;1.96;100.00;98870.91;5540991;32;34176;-69
2023/01/19 11:37:33;;;;;;;;;;;;;;;1.92;100.00;98877.44;5553609;32;34383;-69
2023/01/19 11:40:38;;;;;;;;;;;;;;;1.98;100.00;98879.44;5567150;32;35146;-69
2023/01/19 11:43:45;;;;;;;;;;;;;;;1.90;100.00;98888.03;5553668;32;35064;-70
2023/01/19 11:46:59;;;;;;;;;;;;;;;1.85;100.00;98881.59;5552606;32;33226;-69
2023/01/19 11:50:06;;;;;;;;;;;;;;;1.93;100.00;98886.91;5553154;32;33208;-71
2023/01/19 11:53:09;;;;;;;;;;;;;;;1.98;100.00;98892.53;5567284;32;35048;-70
2023/01/19 11:56:14;;;;;;;;;;;;;;;2.00;100.00;98887.94;5539630;32;34032;-69
2023/01/19 11:59:18;;;;;;;;;;;;;;;2.00;100.00;98898.41;5540246;32;32967;-68
2023/01/19 12:02:26;;;;;;;;;;;;;;;2.04;100.00;98892.72;5566921;32;34107;-70
2023/01/19 12:05:39;;;;;;;;;;;;;;;2.12;100.00;98905.91;5566997;32;34539;-70
2023/01/19 12:08:44;;;;;;;;;;;;;;;2.09;100.00;98908.78;5567030;32;34887;-69
2023/01/19 12:11:51;;;;;;;;;;;;;;;2.02;100.00;98913.00;5552417;32;34249;-69
2023/01/19 12:15:01;;;;;;;;;;;;;;;2.02;100.00;98910.37;5566874;32;34565;-70
2023/01/19 12:18:14;;;;;;;;;;;;;;;2.06;100.00;98922.19;5530631;31;1173723;-70
2023/01/19 12:21:18;;;;;;;;;;;;;;;2.07;100.00;98926.44;5566016;32;34308;-69
2023/01/19 12:24:33;;;;;;;;;;;;;;;2.17;100.00;98934.22;5566681;32;34459;-69
2023/01/19 12:27:42;;;;;;;;;;;;;;;2.16;100.00;98928.16;5566634;32;34971;-69
2023/01/19 12:30:48;;;;;;;;;;;;;;;2.17;100.00;98936.84;5552698;32;33951;-70
2023/01/19 12:33:52;;;;;;;;;;;;;;;2.18;100.00;98928.81;5566918;32;34548;-69
2023/01/19 12:37:01;;;;;;;;;;;;;;;2.21;100.00;98938.19;5552715;32;34472;-68
2023/01/19 12:40:23;;;;;;;;;;;;;;;2.13;100.00;98943.34;5566214;32;35152;-69
2023/01/19 12:43:28;;;;;;;;;;;;;;;2.12;100.00;98939.91;5566343;32;35067;-69
2023/01/19 12:46:33;;;;;;;;;;;;;;;2.13;100.00;98952.00;5566074;32;34295;-70
2023/01/19 12:49:38;;;;;;;;;;;;;;;2.17;100.00;98948.13;5541169;32;33622;-70
2023/01/19 12:52:50;;;;;;;;;;;;;;;2.14;100.00;98950.19;5552509;32;34820;-70
2023/01/19 12:56:04;;;;;;;;;;;;;;;2.13;100.00;98970.31;5565979;32;34872;-70
2023/01/19 12:59:20;;;;;;;;;;;;;;;2.14;100.00;98974.56;5566174;32;34953;-70
2023/01/19 13:02:37;;;;;;;;;;;;;;;2.17;100.00;98979.53;5568673;32;35005;-70
2023/01/19 13:05:41;;;;;;;;;;;;;;;2.11;100.00;98974.06;5568747;32;34618;-70
2023/01/19 13:09:05;;;;;;;;;;;;;;;2.12;100.00;98971.28;5567429;32;35195;-71
2023/01/19 13:12:12;;;;;;;;;;;;;;;2.16;100.00;98983.09;5568299;32;34711;-69
2023/01/19 13:15:27;;;;;;;;;;;;;;;2.24;100.00;98989.38;5567424;32;34510;-70
2023/01/19 13:18:40;;;;;;;;;;;;;;;2.31;100.00;98999.09;5554364;32;32942;-69
2023/01/19 13:21:46;;;;;;;;;;;;;;;2.37;100.00;99014.19;5567712;32;34472;-69
2023/01/19 13:25:06;;;;;;;;;;;;;;;2.37;100.00;99024.66;5554975;32;35884;-69
2023/01/19 13:28:13;;;;;;;;;;;;;;;2.46;100.00;99030.81;5568002;32;35019;-70
2023/01/19 13:31:18;;;;;;;;;;;;;;;2.42;100.00;99038.13;5554818;32;35057;-69
2023/01/19 13:34:24;;;;;;;;;;;;;;;2.42;100.00;99030.28;5555796;32;34508;-70
2023/01/19 13:37:32;;;;;;;;;;;;;;;2.41;100.00;99043.53;5567711;32;34937;-70
2023/01/19 13:40:37;;;;;;;;;;;;;;;2.36;100.00;99051.81;5567605;32;34592;-70
2023/01/19 13:43:41;;;;;;;;;;;;;;;2.38;100.00;99047.25;5567784;32;35320;-71
2023/01/19 13:46:46;;;;;;;;;;;;;;;2.43;100.00;99052.88;5554504;32;33501;-71
2023/01/19 13:49:56;;;;;;;;;;;;;;;2.40;100.00;99063.63;5554778;32;34325;-70
2023/01/19 13:53:03;;;;;;;;;;;;;;;2.42;100.00;99072.16;5541848;32;33658;-69
2023/01/19 13:56:16;;;;;;;;;;;;;;;2.38;100.00;99077.84;5554648;32;34435;-71
2023/01/19 13:59:19;;;;;;;;;;;;;;;2.32;100.00;99075.81;5567849;32;35007;-70
2023/01/19 14:02:23;;;;;;;;;;;;;;;2.31;100.00;99087.25;5567868;32;34532;-70
2023/01/19 14:05:30;;;;;;;;;;;;;;;2.25;100.00;99086.03;5567737;32;35083;-71
2023/01/19 14:08:35;;;;;;;;;;;;;;;2.24;100.00;99100.09;5567565;32;34710;-70
2023/01/19 14:11:40;;;;;;;;;;;;;;;2.10;100.00;99097.97;5567357;32;34310;-71
2023/01/19 14:14:48;;;;;;;;;;;;;;;2.04;100.00;99103.75;5567153;32;34378;-70
2023/01/19 14:18:07;;;;;;;;;;;;;;;2.04;100.00;99093.31;5567149;32;34987;-70
2023/01/19 14:21:12;;;;;;;;;;;;;;;1.93;100.00;99086.50;5553619;32;34888;-70
2023/01/19 14:24:18;;;;;;;;;;;;;;;1.92;100.00;99076.16;5552679;32;34239;-72
2023/01/19 14:27:23;;;;;;;;;;;;;;;1.90;100.00;99068.47;5554093;32;35490;-70
2023/01/19 14:30:29;;;;;;;;;;;;;;;1.85;100.00;99070.69;5553548;32;34949;-69
2023/01/19 14:33:33;;;;;;;;;;;;;;;1.78;100.00;99074.03;5567563;32;34272;-73
2023/01/19 14:36:40;;;;;;;;;;;;;;;1.72;100.00;99088.50;5566246;32;34259;-70
2023/01/19 14:39:48;;;;;;;;;;;;;;;1.71;100.00;99097.31;5567449;32;34291;-70
2023/01/19 14:42:54;;;;;;;;;;;;;;;1.70;100.00;99103.50;5567461;32;34675;-69
2023/01/19 14:45:58;;;;;;;;;;;;;;;1.68;100.00;99095.81;5567217;32;35143;-70
2023/01/19 14:49:04;;;;;;;;;;;;;;;1.66;100.00;99105.56;5540876;32;34165;-70
2023/01/19 14:52:20;;;;;;;;;;;;;;;1.64;100.00;99117.97;5553382;32;35831;-70
2023/01/19 14:55:30;;;;;;;;;;;;;;;1.63;100.00;99124.16;5552455;32;33389;-70
2023/01/19 14:58:35;;;;;;;;;;;;;;;1.66;100.00;99123.03;5553643;32;35684;-71
2023/01/19 15:01:45;;;;;;;;;;;;;;;1.62;100.00;99130.34;5567041;32;35516;-71
2023/01/19 15:04:54;;;;;;;;;;;;;;;1.55;100.00;99144.94;5552318;32;34627;-71
2023/01/19 15:08:02;;;;;;;;;;;;;;;1.53;100.00;99159.12;5562449;32;34503;-71
2023/01/19 15:11:11;;;;;;;;;;;;;;;1.49;100.00;99170.81;5565282;32;34672;-71
2023/01/19 15:14:15;;;;;;;;;;;;;;;1.50;100.00;99185.56;5566729;32;34766;-72
2023/01/19 15:17:26;;;;;;;;;;;;;;;1.52;100.00;99194.88;5547257;32;33204;-72
2023/01/19 15:20:32;;;;;;;;;;;;;;;1.55;100.00;99199.03;5548142;32;34580;-71
2023/01/19 15:23:38;;;;;;;;;;;;;;;1.52;100.00;99189.66;5546115;32;33833;-71
2023/01/19 15:26:43;;;;;;;;;;;;;;;1.59;100.00;99193.37;5546154;32;34695;-72
2023/01/19 15:29:48;;;;;;;;;;;;;;;1.64;100.00;99185.13;5547639;32;33991;-72
2023/01/19 15:32:53;;;;;;;;;;;;;;;1.63;100.00;99179.06;5547639;32;34927;-72
2023/01/19 15:35:58;;;;;;;;;;;;;;;1.53;100.00;99185.25;5546693;32;34589;-70
2023/01/19 15:39:04;;;;;;;;;;;;;;;1.56;100.00;99196.25;5546569;32;35162;-70
2023/01/19 15:42:14;;;;;;;;;;;;;;;1.60;100.00;99200.22;5546736;32;34550;-71
2023/01/19 15:45:36;;;;;;;;;;;;;;;1.63;100.00;99214.81;5547507;32;34511;-72
2023/01/19 15:48:43;;;;;;;;;;;;;;;1.60;100.00;99215.09;5545033;32;34814;-71
2023/01/19 15:51:50;;;;;;;;;;;;;;;1.62;100.00;99200.94;5557388;32;35096;-72
2023/01/19 15:54:55;;;;;;;;;;;;;;;1.53;100.00;99209.59;5546094;32;34502;-71
2023/01/19 15:58:03;;;;;;;;;;;;;;;1.62;100.00;99219.22;5547525;32;34244;-72
2023/01/19 16:01:15;;;;;;;;;;;;;;;1.58;100.00;99228.31;5545415;32;33055;-71
2023/01/19 16:04:21;;;;;;;;;;;;;;;1.60;100.00;99233.38;5556945;32;35112;-72
2023/01/19 16:07:27;;;;;;;;;;;;;;;1.68;100.00;99244.00;5555350;32;34402;-71
2023/01/19 16:10:35;;;;;;;;;;;;;;;1.69;100.00;99259.53;5551017;32;34334;-72
2023/01/19 16:13:45;;;;;;;;;;;;;;;1.70;100.00;99261.19;5547265;32;35042;-72
2023/01/19 16:16:51;;;;;;;;;;;;;;;1.71;100.00;99260.22;5551737;32;34945;-72
2023/01/19 16:19:58;;;;;;;;;;;;;;;1.74;100.00;99261.75;5565406;32;34174;-71
2023/01/19 16:23:07;;;;;;;;;;;;;;;1.71;100.00;99283.75;5552165;32;33314;-71
2023/01/19 16:26:25;;;;;;;;;;;;;;;1.79;100.00;99298.75;5553864;32;34393;-73
2023/01/19 16:29:33;;;;;;;;;;;;;;;1.79;100.00;99296.16;5552410;32;35670;-72